Viola, Wisconsin
Current Conditions -  °F | °C
As of 6:15 AM on Friday 28 Nov 2014 (Local Time) from KY51 Reporting Station
Overcast Overcast  
Wind Chill: -2°   Ceiling: 6000
Heat Index: 13°   Visibility: 10mi
Dew Point: 10°   Wind: 14mph
Humidity: 88%   Direction: 140°SE
Pressure: 30.08"   Gusts: 18mph
Location:  43.51°N, 90.67°W
Report Text: KY51 281215Z AUTO 14012G16KT 10SM OVC060 M11/M12 A3008 RMK AO1 T11071123
Loading
Personal Weather Stations






























Interactive Weather Map New forecast layout! Learn more

10-Day Weather Forecast

Advertisements
Track Severe Weather on mobile